Time;durP1;ratioP1;P1;durP2;ratioP2;P2;SDS_P1;SDS_P2;PMS_P1;PMS_P2;Temp;Humidity;BMP_temperature;BMP_pressure;BME280_temperature;BME280_humidity;BME280_pressure;Samples;Min_cycle;Max_cycle;Signal;HPM_P1;HPM_P2
2020/12/04 00:01:42;;;;;;;8.50;5.00;;;4.80;72.50;;;;;;5053241;28;20304;-77
2020/12/04 00:04:07;;;;;;;6.70;4.13;;;4.80;72.60;;;;;;5054274;28;20174;-75
2020/12/04 00:06:33;;;;;;;7.40;4.47;;;4.80;72.50;;;;;;5052757;28;20578;-76
2020/12/04 00:09:00;;;;;;;9.13;5.87;;;4.80;72.50;;;;;;5053712;28;20214;-76
2020/12/04 00:11:27;;;;;;;10.07;5.10;;;4.80;73.30;;;;;;5054417;28;20793;-75
2020/12/04 00:13:53;;;;;;;9.10;5.43;;;4.80;72.50;;;;;;5053918;28;20562;-76
2020/12/04 00:16:18;;;;;;;10.50;4.90;;;4.80;72.50;;;;;;5054698;28;20956;-76
2020/12/04 00:18:44;;;;;;;8.00;4.40;;;4.80;72.60;;;;;;5053138;28;20173;-76
2020/12/04 00:21:12;;;;;;;9.23;6.00;;;4.80;72.70;;;;;;5055368;28;20197;-76
2020/12/04 00:23:38;;;;;;;7.50;5.27;;;4.80;72.70;;;;;;5064331;28;20446;-77
2020/12/04 00:26:03;;;;;;;5.87;4.13;;;4.80;72.80;;;;;;5061325;28;20921;-76
2020/12/04 00:28:29;;;;;;;8.13;4.67;;;4.70;72.80;;;;;;5050784;28;20252;-77
2020/12/04 00:30:55;;;;;;;6.17;4.57;;;4.70;73.00;;;;;;5050392;28;20180;-76
2020/12/04 00:33:21;;;;;;;14.40;4.70;;;4.70;73.10;;;;;;5052354;28;20189;-76
2020/12/04 00:35:46;;;;;;;7.07;4.83;;;4.70;73.40;;;;;;5052575;28;20462;-76
2020/12/04 00:38:12;;;;;;;7.53;4.70;;;4.70;73.50;;;;;;5051128;28;20184;-77
2020/12/04 00:40:38;;;;;;;6.53;4.07;;;4.70;73.60;;;;;;5051156;28;20663;-76
2020/12/04 00:43:03;;;;;;;8.60;5.47;;;4.70;73.50;;;;;;5051687;28;20200;-76
2020/12/04 00:45:29;;;;;;;7.00;4.50;;;4.70;73.50;;;;;;5052109;28;20169;-78
2020/12/04 00:47:55;;;;;;;7.00;4.77;;;4.70;73.70;;;;;;5051112;28;20386;-76
2020/12/04 00:50:21;;;;;;;10.43;5.20;;;4.70;73.80;;;;;;5035040;28;20174;-76
2020/12/04 00:52:46;;;;;;;7.40;4.80;;;4.70;73.70;;;;;;5052911;28;20948;-76
2020/12/04 00:55:14;;;;;;;6.83;4.77;;;4.70;73.80;;;;;;5054777;28;20670;-74
2020/12/04 00:57:40;;;;;;;7.60;5.00;;;4.70;73.70;;;;;;5054126;28;20258;-77
2020/12/04 01:00:06;;;;;;;7.30;4.40;;;4.70;73.80;;;;;;5050010;28;20440;-76
2020/12/04 01:02:32;;;;;;;6.40;5.13;;;4.70;73.90;;;;;;5034339;28;20563;-76
2020/12/04 01:04:57;;;;;;;7.90;5.03;;;4.70;74.00;;;;;;5049944;28;20157;-77
2020/12/04 01:07:23;;;;;;;5.90;4.77;;;4.70;73.90;;;;;;5051654;28;20767;-76
2020/12/04 01:09:48;;;;;;;9.20;4.70;;;4.70;73.90;;;;;;5051173;28;20249;-77
2020/12/04 01:12:14;;;;;;;8.50;4.67;;;4.70;74.00;;;;;;5051525;28;20165;-76
2020/12/04 01:14:40;;;;;;;12.40;6.53;;;4.70;73.90;;;;;;5049825;28;20740;-76
2020/12/04 01:17:06;;;;;;;6.37;4.20;;;4.70;74.00;;;;;;5050483;28;20419;-75
2020/12/04 01:19:31;;;;;;;8.70;5.27;;;4.70;73.90;;;;;;5054459;28;20685;-77
2020/12/04 01:21:57;;;;;;;9.10;5.43;;;4.70;74.00;;;;;;5054347;28;20236;-76
2020/12/04 01:24:23;;;;;;;8.07;4.73;;;4.70;74.00;;;;;;5054489;28;20194;-76
2020/12/04 01:26:48;;;;;;;8.90;5.50;;;4.70;74.00;;;;;;5056240;28;20226;-77
2020/12/04 01:29:14;;;;;;;8.60;5.07;;;4.70;74.20;;;;;;5054817;28;20408;-77
2020/12/04 01:31:44;;;;;;;6.50;4.90;;;4.70;74.30;;;;;;5054462;28;20715;-75
2020/12/04 01:34:10;;;;;;;9.37;4.80;;;4.70;74.20;;;;;;5054080;28;20570;-75
2020/12/04 01:36:35;;;;;;;6.53;4.93;;;4.70;74.20;;;;;;5053384;28;20409;-76
2020/12/04 01:39:01;;;;;;;10.70;6.00;;;4.70;74.10;;;;;;5054878;28;20202;-75
2020/12/04 01:41:32;;;;;;;11.50;6.20;;;4.70;74.10;;;;;;5053800;28;20248;-75
2020/12/04 01:43:58;;;;;;;7.90;4.70;;;4.70;74.00;;;;;;5054148;28;20435;-75
2020/12/04 01:46:24;;;;;;;7.67;3.97;;;4.70;74.20;;;;;;5055714;28;20416;-76
2020/12/04 01:48:49;;;;;;;6.97;4.30;;;4.70;74.90;;;;;;5055064;28;20166;-77
2020/12/04 01:51:16;;;;;;;9.10;5.83;;;4.70;74.20;;;;;;5054122;28;20180;-75
2020/12/04 01:53:44;;;;;;;7.60;4.97;;;4.70;74.10;;;;;;5054188;28;20236;-76
2020/12/04 01:56:11;;;;;;;7.83;5.77;;;4.70;74.40;;;;;;5054364;28;20412;-76
2020/12/04 01:58:36;;;;;;;7.50;4.87;;;4.60;74.20;;;;;;5054912;28;20909;-76
2020/12/04 02:01:04;;;;;;;9.70;5.27;;;4.60;74.50;;;;;;5054428;28;20521;-76
2020/12/04 02:03:30;;;;;;;7.30;4.53;;;4.60;74.60;;;;;;5052630;28;20206;-76
2020/12/04 02:06:01;;;;;;;8.60;5.00;;;4.60;74.60;;;;;;5053918;28;20797;-75
2020/12/04 02:08:38;;;;;;;11.70;5.33;;;4.60;74.70;;;;;;5053906;28;20368;-75
2020/12/04 02:11:20;;;;;;;6.40;4.37;;;4.50;74.60;;;;;;5054554;28;20453;-76
2020/12/04 02:13:48;;;;;;;8.57;5.27;;;4.50;74.70;;;;;;5053132;28;20474;-75
2020/12/04 02:16:19;;;;;;;8.23;5.03;;;4.50;75.00;;;;;;5053772;28;20408;-75
2020/12/04 02:18:45;;;;;;;7.50;5.20;;;4.50;75.00;;;;;;5052245;28;20831;-75
2020/12/04 02:21:11;;;;;;;7.50;5.10;;;4.50;75.00;;;;;;5053311;28;20422;-75
2020/12/04 02:23:39;;;;;;;8.57;5.63;;;4.50;75.10;;;;;;5053033;28;20513;-75
2020/12/04 02:26:07;;;;;;;6.50;4.03;;;4.50;75.30;;;;;;5053908;28;20404;-75
2020/12/04 02:28:37;;;;;;;7.97;4.93;;;4.40;75.30;;;;;;5053010;28;20825;-76
2020/12/04 02:31:04;;;;;;;9.27;5.87;;;4.40;75.50;;;;;;5052307;28;20408;-77
2020/12/04 02:33:30;;;;;;;8.60;5.83;;;4.40;75.40;;;;;;5052913;28;20444;-75
2020/12/04 02:35:56;;;;;;;8.87;4.63;;;4.40;75.60;;;;;;5053565;28;20478;-76
2020/12/04 02:38:23;;;;;;;8.20;4.33;;;4.40;75.90;;;;;;5053873;28;20177;-77
2020/12/04 02:40:48;;;;;;;9.27;4.77;;;4.40;75.90;;;;;;5053557;28;20416;-76
2020/12/04 02:43:14;;;;;;;8.30;5.23;;;4.40;76.00;;;;;;5053123;28;20526;-74
2020/12/04 02:45:40;;;;;;;7.67;4.87;;;4.40;76.20;;;;;;5053631;28;20161;-76
2020/12/04 02:48:06;;;;;;;6.47;3.87;;;4.40;76.30;;;;;;5053712;28;20528;-77
2020/12/04 02:50:31;;;;;;;8.17;4.63;;;4.40;76.30;;;;;;5069032;28;20173;-77
2020/12/04 02:52:57;;;;;;;7.87;5.10;;;4.30;76.40;;;;;;5053753;28;20631;-75
2020/12/04 02:55:22;;;;;;;10.73;5.80;;;4.30;76.50;;;;;;5053475;28;20647;-76
2020/12/04 02:57:48;;;;;;;6.03;4.60;;;4.30;76.80;;;;;;5056978;28;20823;-77
2020/12/04 03:00:14;;;;;;;7.90;4.90;;;4.30;76.90;;;;;;5057176;28;20178;-77
2020/12/04 03:02:39;;;;;;;7.70;5.10;;;4.30;76.70;;;;;;5051753;28;20209;-75
2020/12/04 03:05:05;;;;;;;8.70;4.67;;;4.30;76.80;;;;;;5060379;28;20242;-77
2020/12/04 03:07:31;;;;;;;11.67;5.20;;;4.30;76.80;;;;;;5060318;28;20170;-76
2020/12/04 03:09:56;;;;;;;7.47;4.50;;;4.30;77.10;;;;;;5067155;28;20174;-77
2020/12/04 03:12:22;;;;;;;8.57;5.67;;;4.30;77.30;;;;;;5054333;28;20166;-78
2020/12/04 03:14:48;;;;;;;11.33;6.33;;;4.30;77.30;;;;;;5053975;28;20193;-78
2020/12/04 03:17:13;;;;;;;13.87;5.07;;;4.30;77.20;;;;;;5052954;28;20176;-77
2020/12/04 03:19:39;;;;;;;8.07;4.90;;;4.20;77.50;;;;;;5053318;28;20635;-77
2020/12/04 03:22:04;;;;;;;7.43;4.73;;;4.20;77.50;;;;;;5053799;28;20596;-79
2020/12/04 03:24:33;;;;;;;7.80;5.03;;;4.20;77.50;;;;;;5053556;28;20697;-78
2020/12/04 03:26:59;;;;;;;8.70;5.40;;;4.30;77.50;;;;;;5053679;28;20272;-78
2020/12/04 03:29:25;;;;;;;6.30;4.40;;;4.20;77.50;;;;;;5052947;28;20424;-78
2020/12/04 03:31:50;;;;;;;9.43;4.90;;;4.20;77.60;;;;;;5054632;28;20428;-78
2020/12/04 03:34:16;;;;;;;9.27;5.83;;;4.30;77.80;;;;;;5056001;28;20197;-78
2020/12/04 03:36:42;;;;;;;6.83;4.20;;;4.30;77.70;;;;;;5055422;28;20204;-76
2020/12/04 03:39:08;;;;;;;8.67;5.33;;;4.30;77.90;;;;;;5052556;28;20542;-78
2020/12/04 03:41:33;;;;;;;7.70;5.00;;;4.30;77.90;;;;;;5054822;28;20761;-78
2020/12/04 03:43:59;;;;;;;8.83;4.37;;;4.30;78.00;;;;;;5053425;28;20728;-77
2020/12/04 03:46:25;;;;;;;6.47;4.67;;;4.40;77.90;;;;;;5051838;28;20205;-78
2020/12/04 03:48:50;;;;;;;7.77;4.67;;;4.40;77.80;;;;;;5052921;28;20193;-77
2020/12/04 03:51:16;;;;;;;7.43;5.00;;;4.40;77.60;;;;;;5053037;28;20162;-76
2020/12/04 03:53:42;;;;;;;6.37;4.80;;;4.40;77.50;;;;;;5050840;28;20273;-77
2020/12/04 03:56:07;;;;;;;9.57;5.33;;;4.50;77.20;;;;;;5051984;28;20166;-76
2020/12/04 03:58:33;;;;;;;8.90;4.23;;;4.50;77.60;;;;;;5051518;28;20634;-76
2020/12/04 04:00:59;;;;;;;7.30;4.97;;;4.50;77.60;;;;;;5052872;28;20306;-77
2020/12/04 04:03:24;;;;;;;6.37;4.30;;;4.50;77.60;;;;;;5052078;28;20197;-79
2020/12/04 04:05:50;;;;;;;9.03;4.70;;;4.50;77.60;;;;;;5052764;28;20913;-77
2020/12/04 04:08:16;;;;;;;7.97;4.90;;;4.50;77.70;;;;;;5051713;28;20195;-76
2020/12/04 04:10:41;;;;;;;6.23;4.73;;;4.60;77.50;;;;;;5053493;28;20300;-76
2020/12/04 04:13:07;;;;;;;6.13;5.20;;;4.60;77.50;;;;;;5052644;28;20182;-76
2020/12/04 04:15:33;;;;;;;7.03;4.50;;;4.60;77.60;;;;;;5050543;28;20176;-76
2020/12/04 04:17:59;;;;;;;6.70;4.40;;;4.60;77.70;;;;;;5053036;28;20173;-77
2020/12/04 04:20:26;;;;;;;6.70;4.13;;;4.60;77.70;;;;;;5053103;28;20252;-77
2020/12/04 04:22:51;;;;;;;8.30;4.97;;;4.70;77.70;;;;;;5053288;28;20470;-78
2020/12/04 04:25:17;;;;;;;7.70;4.17;;;4.70;77.60;;;;;;5053445;28;20408;-77
2020/12/04 04:27:43;;;;;;;5.63;3.87;;;4.70;77.60;;;;;;5053940;28;20214;-77
2020/12/04 04:30:09;;;;;;;5.47;3.30;;;4.80;77.40;;;;;;5053699;28;20181;-77
2020/12/04 04:32:35;;;;;;;7.20;4.17;;;4.80;77.40;;;;;;5052781;28;20189;-79
2020/12/04 04:35:02;;;;;;;6.60;3.20;;;4.90;77.40;;;;;;5054997;28;20415;-77
2020/12/04 04:37:27;;;;;;;4.90;3.57;;;4.90;77.30;;;;;;5052726;28;20921;-77
2020/12/04 04:39:53;;;;;;;4.33;3.03;;;4.90;77.20;;;;;;5053141;28;20415;-78
2020/12/04 04:42:19;;;;;;;6.47;3.80;;;5.00;77.10;;;;;;5053513;28;20571;-77
2020/12/04 04:44:44;;;;;;;4.77;3.30;;;5.00;77.00;;;;;;5052039;28;20196;-78
2020/12/04 04:47:12;;;;;;;3.80;2.90;;;5.00;76.90;;;;;;5050423;28;20180;-77
2020/12/04 04:49:45;;;;;;;4.40;3.63;;;5.00;76.70;;;;;;5052449;28;20207;-78
2020/12/04 04:52:11;;;;;;;5.53;3.67;;;5.10;76.80;;;;;;5056828;28;20422;-77
2020/12/04 04:54:46;;;;;;;5.00;3.10;;;5.10;76.70;;;;;;5056259;28;20428;-77
2020/12/04 04:57:14;;;;;;;4.67;2.70;;;5.10;76.70;;;;;;5056876;28;20908;-76
2020/12/04 04:59:40;;;;;;;3.97;2.60;;;5.10;76.60;;;;;;5055032;28;20461;-77
2020/12/04 05:02:11;;;;;;;4.30;3.70;;;5.20;76.50;;;;;;5055752;28;20452;-77
2020/12/04 05:04:56;;;;;;;5.73;3.70;;;5.20;76.20;;;;;;5055497;28;20424;-77
2020/12/04 05:07:26;;;;;;;5.50;3.43;;;5.20;76.30;;;;;;5071953;28;20468;-78
2020/12/04 05:09:53;;;;;;;4.07;2.87;;;5.20;76.20;;;;;;5057599;28;20517;-77
2020/12/04 05:12:19;;;;;;;4.57;2.63;;;5.20;76.20;;;;;;5074324;28;20400;-78
2020/12/04 05:14:45;;;;;;;4.67;3.47;;;5.20;76.20;;;;;;5064285;28;20486;-78
2020/12/04 05:17:11;;;;;;;6.50;2.93;;;5.20;76.00;;;;;;5056884;28;20424;-77
2020/12/04 05:19:39;;;;;;;4.57;2.83;;;5.20;76.00;;;;;;5055744;28;20451;-77
2020/12/04 05:22:16;;;;;;;5.73;3.00;;;5.20;75.90;;;;;;5054839;28;20350;-77
2020/12/04 05:24:43;;;;;;;6.90;3.57;;;5.20;75.90;;;;;;5057784;28;20465;-77
2020/12/04 05:27:25;;;;;;;7.43;3.20;;;5.30;76.00;;;;;;5041162;28;20420;-77
2020/12/04 05:29:55;;;;;;;6.30;2.93;;;5.30;75.70;;;;;;5057357;28;20946;-76
2020/12/04 05:32:22;;;;;;;5.17;3.27;;;5.30;75.80;;;;;;5055125;28;20454;-78
2020/12/04 05:34:48;;;;;;;7.70;3.13;;;5.30;75.70;;;;;;5060887;28;20436;-80
2020/12/04 05:37:18;;;;;;;3.90;2.57;;;5.40;75.70;;;;;;5063020;28;20424;-81
2020/12/04 05:39:46;;;;;;;4.13;2.73;;;5.40;75.50;;;;;;5064936;28;20467;-81
2020/12/04 05:42:30;;;;;;;3.73;2.60;;;5.40;75.40;;;;;;5065144;28;20455;-81
2020/12/04 05:44:56;;;;;;;4.70;2.73;;;5.50;75.40;;;;;;5063549;28;20422;-77
2020/12/04 05:47:35;;;;;;;4.73;2.83;;;5.50;75.50;;;;;;5044739;28;20484;-79
2020/12/04 05:50:00;;;;;;;4.83;2.97;;;5.50;75.40;;;;;;5062717;28;20408;-79
2020/12/04 05:52:26;;;;;;;4.10;2.50;;;5.50;75.40;;;;;;5063564;28;20424;-80
2020/12/04 05:54:52;;;;;;;4.93;2.40;;;5.50;75.30;;;;;;5080692;28;20226;-80
2020/12/04 05:57:20;;;;;;;3.73;2.60;;;5.50;75.30;;;;;;5066540;28;20170;-78
2020/12/04 05:59:48;;;;;;;4.10;2.70;;;5.50;75.40;;;;;;5068675;28;20233;-81
2020/12/04 06:02:15;;;;;;;4.73;2.97;;;5.50;75.40;;;;;;5065652;28;20451;-80
2020/12/04 06:04:42;;;;;;;4.50;2.83;;;5.60;75.60;;;;;;5063516;28;20436;-79
2020/12/04 06:07:12;;;;;;;3.33;2.80;;;5.60;75.70;;;;;;5065320;28;20424;-79
2020/12/04 06:09:42;;;;;;;3.83;2.47;;;5.60;75.80;;;;;;5066164;28;20412;-79
2020/12/04 06:12:11;;;;;;;4.07;3.00;;;5.60;75.70;;;;;;5065991;28;20447;-78
2020/12/04 06:14:37;;;;;;;4.60;2.50;;;5.70;75.90;;;;;;5055457;28;20440;-79
2020/12/04 06:17:03;;;;;;;4.83;2.60;;;5.70;75.80;;;;;;5068952;28;20431;-80
2020/12/04 06:19:40;;;;;;;2.97;2.40;;;5.70;76.00;;;;;;5070481;28;20416;-80
2020/12/04 06:22:17;;;;;;;4.60;2.33;;;5.70;76.20;;;;;;5039577;28;20194;-78
2020/12/04 06:24:55;;;;;;;3.80;2.37;;;5.70;76.40;;;;;;5049808;28;20432;-78
2020/12/04 06:27:44;;;;;;;3.50;2.60;;;5.70;76.60;;;;;;5057854;28;20420;-78
2020/12/04 06:30:15;;;;;;;3.80;2.30;;;5.70;76.50;;;;;;5070414;28;20462;-79
2020/12/04 06:32:44;;;;;;;4.10;2.67;;;5.80;76.90;;;;;;5069179;28;20424;-78
2020/12/04 06:35:11;;;;;;;3.27;1.80;;;5.80;76.80;;;;;;5067138;28;20400;-79
2020/12/04 06:37:41;;;;;;;4.30;2.33;;;5.80;76.80;;;;;;5065919;28;20412;-78
2020/12/04 06:40:30;;;;;;;3.00;2.23;;;5.90;76.90;;;;;;5067197;28;20419;-79
2020/12/04 06:43:00;;;;;;;4.30;2.73;;;5.90;76.80;;;;;;5063478;28;20887;-79
2020/12/04 06:45:48;;;;;;;5.50;2.70;;;5.90;76.90;;;;;;5064585;28;20408;-77
2020/12/04 06:48:16;;;;;;;3.67;2.67;;;5.90;76.80;;;;;;5065388;28;20608;-79
2020/12/04 06:50:44;;;;;;;3.20;2.23;;;5.90;76.80;;;;;;5065632;28;20415;-78
2020/12/04 06:53:11;;;;;;;3.43;2.60;;;6.00;77.00;;;;;;5065891;28;20443;-79
2020/12/04 06:55:38;;;;;;;4.40;2.90;;;6.00;77.20;;;;;;5063318;28;20412;-77
2020/12/04 06:58:04;;;;;;;2.73;2.30;;;6.00;77.30;;;;;;5067557;28;20466;-78
2020/12/04 07:00:30;;;;;;;3.20;2.10;;;6.00;77.40;;;;;;5068769;28;20412;-79
2020/12/04 07:02:58;;;;;;;3.87;2.40;;;6.00;77.50;;;;;;5067937;28;20467;-77
2020/12/04 07:05:25;;;;;;;3.77;2.33;;;6.00;77.50;;;;;;5074086;28;20157;-78
2020/12/04 07:08:01;;;;;;;2.07;1.60;;;6.00;77.50;;;;;;5071709;28;20431;-79
2020/12/04 07:10:30;;;;;;;5.10;2.87;;;6.00;77.70;;;;;;5066197;28;20477;-80
2020/12/04 07:13:00;;;;;;;3.97;2.17;;;6.10;77.70;;;;;;5061845;28;20535;-78
2020/12/04 07:15:27;;;;;;;4.37;2.63;;;6.10;77.80;;;;;;5043827;28;20436;-80
2020/12/04 07:17:53;;;;;;;4.60;2.40;;;6.10;77.70;;;;;;5057894;28;20714;-80
2020/12/04 07:20:19;;;;;;;3.27;2.30;;;6.10;77.70;;;;;;5063647;28;20424;-79
2020/12/04 07:22:45;;;;;;;3.00;2.17;;;6.10;77.70;;;;;;5063009;28;20439;-80
2020/12/04 07:25:11;;;;;;;5.17;3.03;;;6.20;77.80;;;;;;5063424;28;20416;-80
2020/12/04 07:27:37;;;;;;;4.00;2.77;;;6.10;77.80;;;;;;5041882;28;20174;-79
2020/12/04 07:30:17;;;;;;;4.83;2.10;;;6.10;78.00;;;;;;5042720;28;20227;-79
2020/12/04 07:32:51;;;;;;;3.90;2.00;;;6.10;78.20;;;;;;5042805;28;20432;-79
2020/12/04 07:35:17;;;;;;;3.27;2.13;;;6.10;78.10;;;;;;5060644;28;20451;-77
2020/12/04 07:37:43;;;;;;;5.33;2.70;;;6.10;78.30;;;;;;5064713;28;20424;-80
2020/12/04 07:40:09;;;;;;;4.47;3.00;;;6.10;78.40;;;;;;5063022;28;20434;-78
2020/12/04 07:42:37;;;;;;;2.90;2.10;;;6.10;78.60;;;;;;5061981;28;20194;-79
2020/12/04 07:45:16;;;;;;;2.53;2.30;;;6.10;78.70;;;;;;5061930;28;20511;-80
2020/12/04 07:47:42;;;;;;;3.33;2.53;;;6.10;78.80;;;;;;5062206;28;20435;-79
2020/12/04 07:50:10;;;;;;;2.50;1.80;;;6.10;78.90;;;;;;5057205;28;20420;-79
2020/12/04 07:52:36;;;;;;;3.90;2.33;;;6.20;79.10;;;;;;5055912;28;20439;-76
2020/12/04 07:55:05;;;;;;;4.93;2.30;;;6.20;78.90;;;;;;5047719;28;20457;-80
2020/12/04 07:57:54;;;;;;;3.13;1.87;;;6.20;78.90;;;;;;5041757;28;20416;-79
2020/12/04 08:00:20;;;;;;;4.33;2.20;;;6.30;78.80;;;;;;5048455;28;20408;-79
2020/12/04 08:02:46;;;;;;;3.30;1.80;;;6.30;78.60;;;;;;5077097;28;20459;-80
2020/12/04 08:05:20;;;;;;;8.60;2.37;;;6.30;78.50;;;;;;5043728;28;20435;-79
2020/12/04 08:07:51;;;;;;;3.73;1.93;;;6.30;78.50;;;;;;5062216;28;20408;-79
2020/12/04 08:10:17;;;;;;;2.50;1.87;;;6.30;78.50;;;;;;5043807;28;20473;-78
2020/12/04 08:12:44;;;;;;;5.77;2.50;;;6.30;78.50;;;;;;5061331;28;20434;-77
2020/12/04 08:15:11;;;;;;;3.97;2.17;;;6.30;78.40;;;;;;5060281;28;20412;-80
2020/12/04 08:17:37;;;;;;;4.17;2.83;;;6.40;78.50;;;;;;5060088;28;20420;-79
2020/12/04 08:20:13;;;;;;;5.27;2.50;;;6.40;78.50;;;;;;5060815;28;20408;-80
2020/12/04 08:22:39;;;;;;;7.90;2.27;;;6.50;78.40;;;;;;5060043;28;20247;-79
2020/12/04 08:25:07;;;;;;;2.50;1.73;;;6.50;78.10;;;;;;5053258;28;20428;-81
2020/12/04 08:27:44;;;;;;;3.47;1.80;;;6.60;77.90;;;;;;5063906;28;20408;-80
2020/12/04 08:30:17;;;;;;;4.80;1.77;;;6.60;77.70;;;;;;5069987;28;20419;-81
2020/12/04 08:32:48;;;;;;;4.10;2.03;;;6.60;77.50;;;;;;5070582;28;20454;-79
2020/12/04 08:35:16;;;;;;;3.73;2.57;;;6.70;77.50;;;;;;5067034;28;20411;-80
2020/12/04 08:37:41;;;;;;;3.30;1.83;;;6.70;77.40;;;;;;5066257;28;20427;-82
2020/12/04 08:40:26;;;;;;;7.40;1.80;;;6.80;77.30;;;;;;5066437;28;20420;-80
2020/12/04 08:42:54;;;;;;;4.97;2.70;;;6.80;77.10;;;;;;5068941;28;20193;-82
2020/12/04 08:45:29;;;;;;;3.90;2.17;;;6.90;77.10;;;;;;5064929;28;20404;-79
2020/12/04 08:48:06;;;;;;;3.23;1.47;;;6.90;77.20;;;;;;5067824;28;20458;-79
2020/12/04 08:50:31;;;;;;;1.77;1.60;;;6.90;77.20;;;;;;5068290;28;20416;-78
2020/12/04 08:52:57;;;;;;;3.73;2.50;;;7.00;77.30;;;;;;5072833;28;20424;-80
2020/12/04 08:55:26;;;;;;;4.70;1.80;;;7.00;77.10;;;;;;5067004;28;20227;-80
2020/12/04 08:57:54;;;;;;;3.17;2.17;;;7.00;77.20;;;;;;5069256;28;20192;-79
2020/12/04 09:00:22;;;;;;;6.43;2.33;;;7.00;77.10;;;;;;5053206;28;20420;-81
2020/12/04 09:02:48;;;;;;;2.37;1.50;;;7.10;77.10;;;;;;5074544;28;20456;-82
2020/12/04 09:05:16;;;;;;;2.30;1.50;;;7.20;77.00;;;;;;5070946;28;20404;-79
2020/12/04 09:07:42;;;;;;;2.50;1.83;;;7.20;76.60;;;;;;5067706;28;20170;-79
2020/12/04 09:10:14;;;;;;;2.27;1.30;;;7.30;76.50;;;;;;5060992;28;21141;-80
2020/12/04 09:12:40;;;;;;;3.17;1.63;;;7.40;76.40;;;;;;5065152;28;20905;-80
2020/12/04 09:15:07;;;;;;;2.57;1.47;;;7.50;76.20;;;;;;5067200;28;20439;-80
2020/12/04 09:17:34;;;;;;;7.17;2.20;;;7.80;75.60;;;;;;5068917;28;20420;-81
2020/12/04 09:19:59;;;;;;;2.27;1.43;;;8.20;75.00;;;;;;5056312;28;20463;-79
2020/12/04 09:22:25;;;;;;;2.70;1.57;;;8.50;72.80;;;;;;5045320;28;20456;-81
2020/12/04 09:24:51;;;;;;;2.40;1.40;;;8.80;71.10;;;;;;5063696;28;20190;-79
2020/12/04 09:27:17;;;;;;;5.90;1.60;;;8.90;70.20;;;;;;5064405;28;20173;-78
2020/12/04 09:29:43;;;;;;;2.23;1.30;;;8.80;70.10;;;;;;5065003;28;21098;-84
2020/12/04 09:32:15;;;;;;;3.63;1.43;;;8.60;70.70;;;;;;5065401;28;20439;-80
2020/12/04 09:34:42;;;;;;;2.80;1.60;;;8.60;70.80;;;;;;5070114;28;20435;-78
2020/12/04 09:37:12;;;;;;;2.60;1.33;;;8.80;70.40;;;;;;5072838;28;20416;-81
2020/12/04 09:39:38;;;;;;;1.73;1.33;;;9.10;70.10;;;;;;5070685;28;20424;-81
2020/12/04 09:42:06;;;;;;;3.50;1.57;;;9.50;68.10;;;;;;5065219;28;20964;-76
2020/12/04 09:44:33;;;;;;;1.63;1.10;;;9.40;67.60;;;;;;5068129;28;20424;-77
2020/12/04 09:46:59;;;;;;;15.93;8.57;;;9.30;68.90;;;;;;5064783;28;20424;-80
2020/12/04 09:49:25;;;;;;;2.70;1.73;;;9.30;68.70;;;;;;5066311;28;20420;-78
2020/12/04 09:51:50;;;;;;;2.90;1.20;;;9.10;68.50;;;;;;5080102;28;20487;-79
2020/12/04 09:54:16;;;;;;;2.53;1.37;;;9.00;68.80;;;;;;5064112;28;20188;-78
2020/12/04 09:56:42;;;;;;;3.07;2.03;;;8.80;69.50;;;;;;5044559;28;20185;-81
2020/12/04 09:59:07;;;;;;;1.40;1.20;;;8.70;70.00;;;;;;5059962;28;20307;-82
2020/12/04 10:01:33;;;;;;;4.93;1.90;;;8.70;71.00;;;;;;5059312;28;20193;-79
2020/12/04 10:03:59;;;;;;;2.37;1.40;;;8.70;70.10;;;;;;5056516;28;20222;-80
2020/12/04 10:06:24;;;;;;;3.37;1.33;;;8.70;70.10;;;;;;5040879;28;20173;-80
2020/12/04 10:08:50;;;;;;;1.93;1.20;;;8.60;70.60;;;;;;5049062;28;20169;-79
2020/12/04 10:11:15;;;;;;;2.90;1.87;;;8.60;70.60;;;;;;5057546;28;20220;-78
2020/12/04 10:13:42;;;;;;;6.07;1.50;;;8.50;70.40;;;;;;5045171;28;20193;-80
2020/12/04 10:16:07;;;;;;;1.93;1.20;;;8.50;70.70;;;;;;5056789;28;20190;-79
2020/12/04 10:18:33;;;;;;;2.43;1.50;;;8.40;70.50;;;;;;5043165;28;20467;-78
2020/12/04 10:20:59;;;;;;;3.53;1.63;;;8.30;70.80;;;;;;5062835;28;20166;-77
2020/12/04 10:23:25;;;;;;;2.13;1.40;;;8.30;71.30;;;;;;5047285;28;20523;-77
2020/12/04 10:25:50;;;;;;;2.70;1.40;;;8.20;71.30;;;;;;5065852;28;20428;-79
2020/12/04 10:28:16;;;;;;;3.60;2.10;;;8.20;71.40;;;;;;5066390;28;20209;-77
2020/12/04 10:30:42;;;;;;;6.70;2.70;;;8.10;71.50;;;;;;5066667;28;20237;-78
2020/12/04 10:33:08;;;;;;;9.60;3.53;;;8.10;71.80;;;;;;5068540;28;20209;-78
2020/12/04 10:35:33;;;;;;;6.00;1.90;;;8.10;72.00;;;;;;5069896;28;20165;-78
2020/12/04 10:37:59;;;;;;;3.67;2.03;;;8.10;72.40;;;;;;5069524;28;20219;-76
2020/12/04 10:40:24;;;;;;;5.20;1.80;;;8.10;72.40;;;;;;5068320;28;20166;-79
2020/12/04 10:42:51;;;;;;;3.30;1.67;;;8.10;72.80;;;;;;5067872;28;20204;-78
2020/12/04 10:45:17;;;;;;;2.93;1.90;;;8.20;73.10;;;;;;5066710;28;20185;-77
2020/12/04 10:47:43;;;;;;;2.90;1.83;;;8.20;73.60;;;;;;5067304;28;20413;-79
2020/12/04 10:50:08;;;;;;;5.03;1.73;;;8.20;74.00;;;;;;5065565;28;20184;-79
2020/12/04 10:52:34;;;;;;;7.20;2.30;;;8.20;74.40;;;;;;5072734;28;20170;-78
2020/12/04 10:55:00;;;;;;;3.60;2.13;;;8.30;74.80;;;;;;5066266;28;20424;-77
2020/12/04 10:57:27;;;;;;;2.20;1.17;;;8.30;75.10;;;;;;5067056;28;20170;-78
2020/12/04 10:59:53;;;;;;;3.00;1.80;;;8.30;75.70;;;;;;5063838;28;20544;-81
2020/12/04 11:02:41;;;;;;;1.70;1.23;;;8.30;75.90;;;;;;5062666;28;20555;-77
2020/12/04 11:07:48;;;;;;;6.07;3.73;;;8.30;75.90;;;;;;5057554;28;20416;-81
2020/12/04 11:10:14;;;;;;;3.30;1.80;;;8.30;76.30;;;;;;5062217;28;20482;-78
2020/12/04 11:12:40;;;;;;;3.47;2.63;;;8.30;76.50;;;;;;5063965;28;20166;-80
2020/12/04 11:15:08;;;;;;;4.93;2.17;;;8.30;76.30;;;;;;5056289;28;20178;-80
2020/12/04 11:17:34;;;;;;;6.80;2.40;;;8.30;76.20;;;;;;5064934;28;20173;-80
2020/12/04 11:20:00;;;;;;;6.80;3.40;;;8.30;76.40;;;;;;5079952;28;20420;-80
2020/12/04 11:22:25;;;;;;;58.50;29.27;;;8.20;77.00;;;;;;5067304;28;20452;-78
2020/12/04 11:24:51;;;;;;;4.20;2.70;;;8.20;78.40;;;;;;5048623;28;20228;-78
2020/12/04 11:27:17;;;;;;;4.17;2.60;;;8.20;79.40;;;;;;5065178;28;20174;-80
2020/12/04 11:30:03;;;;;;;3.60;2.23;;;8.10;79.30;;;;;;5063419;28;20166;-78
2020/12/04 11:32:28;;;;;;;4.00;1.87;;;8.00;80.00;;;;;;5043082;28;20174;-79
2020/12/04 11:34:54;;;;;;;10.77;7.23;;;8.00;80.80;;;;;;5048223;28;20431;-79
2020/12/04 11:37:19;;;;;;;6.20;2.23;;;8.00;81.10;;;;;;5062915;28;20181;-80
2020/12/04 11:39:45;;;;;;;3.60;1.30;;;7.90;80.90;;;;;;5062178;28;20646;-79
2020/12/04 11:42:11;;;;;;;2.77;1.90;;;7.90;80.50;;;;;;5062867;28;20197;-78
2020/12/04 11:44:37;;;;;;;2.60;1.20;;;7.90;80.80;;;;;;5060795;28;20427;-82
2020/12/04 11:47:03;;;;;;;3.67;1.90;;;7.90;80.50;;;;;;5046345;28;20486;-79
2020/12/04 11:49:32;;;;;;;2.87;1.40;;;7.90;80.00;;;;;;5058388;28;20404;-80
2020/12/04 11:51:58;;;;;;;4.27;1.77;;;7.90;79.80;;;;;;5054713;28;20174;-80
2020/12/04 11:54:24;;;;;;;4.00;1.63;;;7.90;79.50;;;;;;5044836;28;20528;-79
2020/12/04 11:56:52;;;;;;;3.60;1.20;;;7.80;79.00;;;;;;5064160;28;20188;-78
2020/12/04 11:59:18;;;;;;;4.63;3.03;;;7.80;78.40;;;;;;5060247;28;20204;-77
2020/12/04 12:01:45;;;;;;;6.23;1.80;;;7.80;78.00;;;;;;5060176;28;20424;-81
2020/12/04 12:04:14;;;;;;;1.90;0.90;;;7.80;78.30;;;;;;5042533;28;20625;-79
2020/12/04 12:06:41;;;;;;;9.10;4.50;;;7.80;77.40;;;;;;5061561;28;20420;-78
2020/12/04 12:09:07;;;;;;;5.40;1.27;;;7.80;77.60;;;;;;5061947;28;20758;-79
2020/12/04 12:11:36;;;;;;;2.30;1.03;;;7.90;77.30;;;;;;5043301;28;20451;-78
2020/12/04 12:14:02;;;;;;;4.53;1.97;;;7.90;76.80;;;;;;5057231;28;20459;-80
2020/12/04 12:16:37;;;;;;;4.07;1.90;;;7.90;75.70;;;;;;5061754;28;20404;-80
2020/12/04 12:19:07;;;;;;;3.63;1.13;;;8.00;75.80;;;;;;5050888;28;20197;-80
2020/12/04 12:21:41;;;;;;;6.63;1.20;;;8.30;75.40;;;;;;5041397;28;20893;-76
2020/12/04 12:24:07;;;;;;;7.63;1.23;;;8.40;74.40;;;;;;5051954;28;20427;-77
2020/12/04 12:26:33;;;;;;;2.90;1.10;;;8.60;73.80;;;;;;5061690;28;20411;-81
2020/12/04 12:28:58;;;;;;;1.43;1.07;;;8.80;73.10;;;;;;5049338;28;20261;-79
2020/12/04 12:31:24;;;;;;;7.03;3.10;;;8.90;72.00;;;;;;5039772;28;20214;-79
2020/12/04 12:33:50;;;;;;;20.23;13.37;;;9.00;72.30;;;;;;5046732;28;20224;-79
2020/12/04 12:36:16;;;;;;;4.50;1.33;;;9.00;71.20;;;;;;5061209;28;20526;-80
2020/12/04 12:38:42;;;;;;;4.13;2.30;;;9.00;70.50;;;;;;5063324;28;20410;-80
2020/12/04 12:41:08;;;;;;;5.23;2.70;;;9.00;70.20;;;;;;5062194;28;20432;-79
2020/12/04 12:43:34;;;;;;;2.70;1.90;;;9.10;70.40;;;;;;5052670;28;20206;-78
2020/12/04 12:46:00;;;;;;;1.83;1.20;;;9.10;69.00;;;;;;5040082;28;21002;-79
2020/12/04 12:48:26;;;;;;;2.60;1.17;;;9.00;68.50;;;;;;5041883;28;20416;-79
2020/12/04 12:50:52;;;;;;;4.47;1.47;;;8.90;68.60;;;;;;5059918;28;20169;-78
2020/12/04 12:53:18;;;;;;;2.17;1.60;;;8.90;69.20;;;;;;5061576;28;20297;-78
2020/12/04 12:55:44;;;;;;;3.70;2.00;;;8.80;68.40;;;;;;5063936;28;20407;-79
2020/12/04 12:58:10;;;;;;;6.57;3.00;;;8.70;68.50;;;;;;5059357;28;20434;-77
2020/12/04 13:00:35;;;;;;;2.27;1.53;;;8.70;69.10;;;;;;5046923;28;20170;-77